createdAt,value
2017-06-25T00:01:21.358Z,97556.68
2017-06-25T00:03:48.809Z,97565.32
2017-06-25T00:06:16.222Z,97573.59
2017-06-25T00:08:46.454Z,97577.86
2017-06-25T00:11:15.900Z,97578.26
2017-06-25T00:13:43.323Z,97579.02
2017-06-25T00:16:10.767Z,97567.21
2017-06-25T00:18:38.243Z,97566.02
2017-06-25T00:21:05.654Z,97562.77
2017-06-25T00:23:33.098Z,97559.06
2017-06-25T00:26:03.388Z,97555.89
2017-06-25T00:28:31.368Z,97567.27
2017-06-25T00:31:00.521Z,97563.25
2017-06-25T00:33:28.055Z,97570.22
2017-06-25T00:35:55.526Z,97565.08
2017-06-25T00:38:22.951Z,97570.98
2017-06-25T00:40:50.404Z,97582.87
2017-06-25T00:43:17.891Z,97581.52
2017-06-25T00:45:45.345Z,97582.30
2017-06-25T00:48:12.915Z,97588.09
2017-06-25T00:50:40.425Z,97589.52
2017-06-25T00:53:14.013Z,97589.22
2017-06-25T00:55:46.151Z,97588.27
2017-06-25T00:58:14.407Z,97591.77
2017-06-25T01:00:43.772Z,97593.59
2017-06-25T01:03:14.954Z,97595.23
2017-06-25T01:05:42.384Z,97597.61
2017-06-25T01:08:09.813Z,97591.00
2017-06-25T01:10:37.267Z,97597.30
2017-06-25T01:13:05.542Z,97600.87
2017-06-25T01:15:32.983Z,97612.98
2017-06-25T01:18:00.430Z,97614.05
2017-06-25T01:20:28.347Z,97606.46
2017-06-25T01:22:55.825Z,97606.71
2017-06-25T01:25:23.235Z,97605.86
2017-06-25T01:27:56.670Z,97604.91
2017-06-25T01:30:52.891Z,97595.92
2017-06-25T01:33:20.392Z,97597.39
2017-06-25T01:35:47.976Z,97586.11
2017-06-25T01:38:15.386Z,97583.67
2017-06-25T01:40:42.861Z,97582.30
2017-06-25T01:43:10.272Z,97585.34
2017-06-25T01:45:37.668Z,97582.77
2017-06-25T01:48:05.298Z,97580.94
2017-06-25T01:50:32.781Z,97584.71
2017-06-25T01:53:00.253Z,97581.82
2017-06-25T01:55:31.569Z,97595.66
2017-06-25T01:57:59.004Z,97594.80
2017-06-25T02:00:26.411Z,97589.69
2017-06-25T02:02:53.887Z,97589.61
2017-06-25T02:05:21.338Z,97579.28
2017-06-25T02:07:48.765Z,97575.81
2017-06-25T02:10:16.225Z,97573.92
2017-06-25T02:12:43.709Z,97563.95
2017-06-25T02:15:11.131Z,97558.23
2017-06-25T02:17:38.547Z,97557.90
2017-06-25T02:20:06.001Z,97557.56
2017-06-25T02:22:33.447Z,97560.27
2017-06-25T02:25:00.881Z,97563.30
2017-06-25T02:27:28.327Z,97564.61
2017-06-25T02:29:55.788Z,97564.97
2017-06-25T02:32:23.264Z,97566.45
2017-06-25T02:34:50.679Z,97563.06
2017-06-25T02:37:18.114Z,97557.23
2017-06-25T02:39:46.433Z,97553.86
2017-06-25T02:42:13.864Z,97547.23
2017-06-25T02:44:42.198Z,97549.39
2017-06-25T02:47:09.654Z,97549.06
2017-06-25T02:49:37.111Z,97553.16
2017-06-25T02:52:04.663Z,97556.07
2017-06-25T02:54:32.061Z,97554.48
2017-06-25T02:56:59.485Z,97551.61
2017-06-25T02:59:30.751Z,97562.29
2017-06-25T03:01:58.250Z,97565.61
2017-06-25T03:04:25.654Z,97567.45
2017-06-25T03:06:53.087Z,97566.52
2017-06-25T03:09:32.318Z,97575.52
2017-06-25T03:11:59.817Z,97562.73
2017-06-25T03:14:27.272Z,97559.69
2017-06-25T03:16:54.687Z,97557.88
2017-06-25T03:19:22.154Z,97562.41
2017-06-25T03:21:49.596Z,97564.19
2017-06-25T03:24:17.052Z,97567.31
2017-06-25T03:26:44.525Z,97576.33
2017-06-25T03:29:12.000Z,97575.00
2017-06-25T03:31:39.425Z,97574.41
2017-06-25T03:34:06.873Z,97570.21
2017-06-25T03:36:36.115Z,97568.70
2017-06-25T03:39:04.027Z,97569.61
2017-06-25T03:41:31.600Z,97566.50
2017-06-25T03:43:59.054Z,97560.68
2017-06-25T03:46:26.467Z,97567.73
2017-06-25T03:48:53.937Z,97561.77
2017-06-25T03:51:23.251Z,97553.20
2017-06-25T03:53:50.666Z,97540.36
2017-06-25T03:56:18.216Z,97538.70
2017-06-25T03:58:45.683Z,97533.52
2017-06-25T04:01:13.126Z,97540.64
2017-06-25T04:03:41.059Z,97539.14
2017-06-25T04:06:08.500Z,97538.52
2017-06-25T04:08:35.999Z,97530.95
2017-06-25T04:11:03.412Z,97533.75
2017-06-25T04:13:30.829Z,97539.31
2017-06-25T04:15:58.256Z,97543.95
2017-06-25T04:18:25.688Z,97547.30
2017-06-25T04:20:53.164Z,97558.42
2017-06-25T04:23:20.655Z,97563.22
2017-06-25T04:25:48.106Z,97564.14
2017-06-25T04:28:15.538Z,97560.98
2017-06-25T04:30:42.954Z,97561.19
2017-06-25T04:33:10.364Z,97572.49
2017-06-25T04:35:37.820Z,97570.42
2017-06-25T04:38:05.259Z,97575.73
2017-06-25T04:40:33.037Z,97592.13
2017-06-25T04:43:00.463Z,97596.39
2017-06-25T04:45:27.994Z,97607.82
2017-06-25T04:47:55.411Z,97601.78
2017-06-25T04:50:22.838Z,97599.58
2017-06-25T04:52:50.301Z,97591.13
2017-06-25T04:55:17.724Z,97587.25
2017-06-25T04:57:45.964Z,97596.59
2017-06-25T05:00:13.473Z,97598.75
2017-06-25T05:02:41.638Z,97586.28
2017-06-25T05:05:09.118Z,97570.16
2017-06-25T05:07:36.769Z,97551.18
2017-06-25T05:10:05.131Z,97538.06
2017-06-25T05:12:35.335Z,97531.63
2017-06-25T05:15:03.167Z,97536.11
2017-06-25T05:17:30.658Z,97535.43
2017-06-25T05:19:59.010Z,97542.48
2017-06-25T05:22:26.500Z,97541.98
2017-06-25T05:24:57.928Z,97541.05
2017-06-25T05:27:25.449Z,97544.89
2017-06-25T05:29:52.896Z,97545.55
2017-06-25T05:32:20.339Z,97550.94
2017-06-25T05:34:47.799Z,97557.92
2017-06-25T05:37:15.217Z,97561.95
2017-06-25T05:39:42.702Z,97563.83
2017-06-25T05:42:10.119Z,97570.37
2017-06-25T05:44:42.167Z,97577.07
2017-06-25T05:47:09.619Z,97587.53
2017-06-25T05:49:37.077Z,97598.63
2017-06-25T05:52:04.492Z,97594.20
2017-06-25T05:54:31.915Z,97602.08
2017-06-25T05:57:00.170Z,97605.64
2017-06-25T05:59:27.751Z,97619.78
2017-06-25T06:01:55.349Z,97610.79
2017-06-25T06:04:22.867Z,97616.95
2017-06-25T06:06:50.356Z,97614.89
2017-06-25T06:09:17.829Z,97605.03
2017-06-25T06:11:45.255Z,97606.80
2017-06-25T06:14:12.698Z,97609.47
2017-06-25T06:16:40.145Z,97605.43
2017-06-25T06:19:07.638Z,97602.41
2017-06-25T06:21:35.038Z,97603.31
2017-06-25T06:24:02.470Z,97607.54
2017-06-25T06:26:29.918Z,97624.28
2017-06-25T06:28:57.465Z,97630.73
2017-06-25T06:31:24.878Z,97634.92
2017-06-25T06:33:52.323Z,97629.84
2017-06-25T06:36:19.814Z,97628.58
2017-06-25T06:38:47.361Z,97641.55
2017-06-25T06:41:14.840Z,97638.41
2017-06-25T06:43:42.291Z,97628.73
2017-06-25T06:46:13.534Z,97618.82
2017-06-25T06:48:41.011Z,97621.99
2017-06-25T06:51:08.564Z,97617.45
2017-06-25T06:53:38.724Z,97611.36
2017-06-25T06:56:09.261Z,97610.72
2017-06-25T06:58:43.308Z,97615.05
2017-06-25T07:01:14.684Z,97604.28
2017-06-25T07:03:42.143Z,97600.69
2017-06-25T07:06:11.462Z,97602.20
2017-06-25T07:08:38.893Z,97592.34
2017-06-25T07:11:06.678Z,97594.16
2017-06-25T07:13:34.117Z,97592.84
2017-06-25T07:16:01.809Z,97594.14
2017-06-25T07:18:29.260Z,97595.84
2017-06-25T07:20:57.753Z,97603.11
2017-06-25T07:23:25.290Z,97594.78
2017-06-25T07:25:52.946Z,97602.46
2017-06-25T07:28:20.499Z,97606.44
2017-06-25T07:30:50.764Z,97609.20
2017-06-25T07:33:18.232Z,97599.45
2017-06-25T07:35:49.389Z,97608.88
2017-06-25T07:38:17.588Z,97602.41
2017-06-25T07:40:45.006Z,97599.92
2017-06-25T07:43:12.447Z,97599.55
2017-06-25T07:45:39.875Z,97590.89
2017-06-25T07:48:08.029Z,97582.77
2017-06-25T07:50:35.648Z,97590.64
2017-06-25T07:53:03.096Z,97593.63
2017-06-25T07:55:30.539Z,97599.92
2017-06-25T07:57:57.963Z,97602.52
2017-06-25T08:00:27.911Z,97599.67
2017-06-25T08:02:55.334Z,97595.09
2017-06-25T08:05:22.804Z,97588.56
2017-06-25T08:07:50.227Z,97596.74
2017-06-25T08:10:17.672Z,97597.56
2017-06-25T08:12:45.174Z,97593.14
2017-06-25T08:15:15.381Z,97603.00
2017-06-25T08:17:42.826Z,97590.55
2017-06-25T08:20:10.751Z,97588.93
2017-06-25T08:22:38.296Z,97588.78
2017-06-25T08:25:05.935Z,97595.75
2017-06-25T08:27:33.379Z,97594.72
2017-06-25T08:30:00.792Z,97591.02
2017-06-25T08:32:28.236Z,97583.17
2017-06-25T08:34:56.420Z,97573.59
2017-06-25T08:37:23.876Z,97565.84
2017-06-25T08:39:51.301Z,97564.88
2017-06-25T08:42:18.761Z,97555.73
2017-06-25T08:44:46.213Z,97562.87
2017-06-25T08:47:13.625Z,97564.23
2017-06-25T08:49:41.521Z,97572.30
2017-06-25T08:52:08.955Z,97564.69
2017-06-25T08:54:37.303Z,97552.61
2017-06-25T08:57:04.752Z,97558.34
2017-06-25T08:59:32.237Z,97549.30
2017-06-25T09:01:59.811Z,97550.41
2017-06-25T09:04:27.359Z,97549.86
2017-06-25T09:06:55.648Z,97542.55
2017-06-25T09:09:23.103Z,97537.54
2017-06-25T09:11:50.535Z,97537.14
2017-06-25T09:14:17.978Z,97535.20
2017-06-25T09:16:46.032Z,97535.38
2017-06-25T09:19:13.448Z,97530.63
2017-06-25T09:21:40.907Z,97533.65
2017-06-25T09:24:08.347Z,97531.93
2017-06-25T09:26:36.700Z,97524.87
2017-06-25T09:29:04.271Z,97523.70
2017-06-25T09:31:36.676Z,97525.27
2017-06-25T09:34:04.139Z,97528.00
2017-06-25T09:36:38.442Z,97538.25
2017-06-25T09:39:05.916Z,97538.63
2017-06-25T09:41:33.385Z,97546.91
2017-06-25T09:44:00.854Z,97541.59
2017-06-25T09:46:28.310Z,97544.14
2017-06-25T09:48:55.854Z,97548.05
2017-06-25T09:51:23.343Z,97548.84
2017-06-25T09:53:53.684Z,97557.14
2017-06-25T09:56:21.211Z,97561.66
2017-06-25T09:58:48.683Z,97555.95
2017-06-25T10:01:16.120Z,97556.55
2017-06-25T10:03:43.568Z,97554.98
2017-06-25T10:06:11.103Z,97557.94
2017-06-25T10:08:38.537Z,97564.81
2017-06-25T10:11:08.100Z,97564.22
2017-06-25T10:13:35.517Z,97557.54
2017-06-25T10:16:02.959Z,97558.11
2017-06-25T10:18:30.419Z,97559.89
2017-06-25T10:20:57.849Z,97566.38
2017-06-25T10:23:25.257Z,97570.11
2017-06-25T10:25:52.721Z,97568.53
2017-06-25T10:28:20.145Z,97574.01
2017-06-25T10:30:47.635Z,97569.53
2017-06-25T10:33:15.097Z,97563.86
2017-06-25T10:35:42.583Z,97560.06
2017-06-25T10:38:10.047Z,97561.60
2017-06-25T10:40:37.516Z,97560.85
2017-06-25T10:43:04.915Z,97557.34
2017-06-25T10:45:32.321Z,97559.44
2017-06-25T10:47:59.761Z,97555.85
2017-06-25T10:50:27.208Z,97547.01
2017-06-25T10:53:01.898Z,97548.88
2017-06-25T10:55:31.115Z,97550.04
2017-06-25T10:57:58.596Z,97546.10
2017-06-25T11:00:26.454Z,97553.36
2017-06-25T11:02:53.872Z,97547.00
2017-06-25T11:05:21.325Z,97554.87
2017-06-25T11:07:48.764Z,97560.80
2017-06-25T11:10:16.239Z,97565.31
2017-06-25T11:12:43.807Z,97559.55
2017-06-25T11:15:12.101Z,97551.81
2017-06-25T11:17:39.514Z,97550.92
2017-06-25T11:20:06.973Z,97556.03
2017-06-25T11:22:38.484Z,97549.41
2017-06-25T11:25:05.890Z,97558.33
2017-06-25T11:27:36.999Z,97560.67
2017-06-25T11:30:04.488Z,97552.30
2017-06-25T11:32:31.960Z,97557.83
2017-06-25T11:34:59.362Z,97542.48
2017-06-25T11:37:27.745Z,97543.94
2017-06-25T11:39:55.368Z,97548.11
2017-06-25T11:42:22.928Z,97548.99
2017-06-25T11:44:50.489Z,97552.70
2017-06-25T11:47:17.941Z,97547.07
2017-06-25T11:49:45.383Z,97545.03
2017-06-25T11:52:12.826Z,97533.66
2017-06-25T11:54:40.280Z,97526.91
2017-06-25T11:57:07.768Z,97533.58
2017-06-25T11:59:35.199Z,97536.05
2017-06-25T12:02:02.640Z,97531.90
2017-06-25T12:04:30.216Z,97532.24
2017-06-25T12:06:57.686Z,97534.95
2017-06-25T12:09:25.740Z,97522.24
2017-06-25T12:11:53.181Z,97521.60
2017-06-25T12:14:20.628Z,97521.69
2017-06-25T12:16:48.059Z,97529.39
2017-06-25T12:19:15.510Z,97525.50
2017-06-25T12:21:43.019Z,97538.06
2017-06-25T12:24:10.429Z,97530.48
2017-06-25T12:26:37.921Z,97534.66
2017-06-25T12:29:05.418Z,97536.05
2017-06-25T12:31:32.860Z,97538.84
2017-06-25T12:34:02.093Z,97534.80
2017-06-25T12:36:29.502Z,97527.55
2017-06-25T12:38:56.954Z,97528.05
2017-06-25T12:41:24.416Z,97529.16
2017-06-25T12:43:52.305Z,97524.13
2017-06-25T12:46:19.814Z,97528.11
2017-06-25T12:48:47.234Z,97535.71
2017-06-25T12:51:14.662Z,97532.47
2017-06-25T12:53:42.120Z,97531.94
2017-06-25T12:56:09.543Z,97529.67
2017-06-25T12:58:37.648Z,97531.66
2017-06-25T13:01:05.075Z,97534.58
2017-06-25T13:03:32.498Z,97536.19
2017-06-25T13:05:59.926Z,97535.25
2017-06-25T13:08:27.416Z,97537.21
2017-06-25T13:10:54.845Z,97533.28
2017-06-25T13:13:22.286Z,97535.44
2017-06-25T13:15:49.802Z,97528.98
2017-06-25T13:18:17.316Z,97532.14
2017-06-25T13:20:44.735Z,97528.11
2017-06-25T13:23:12.214Z,97521.25
2017-06-25T13:25:39.763Z,97523.20
2017-06-25T13:28:07.263Z,97516.37
2017-06-25T13:30:34.695Z,97514.44
2017-06-25T13:33:02.139Z,97512.81
2017-06-25T13:35:32.543Z,97524.28
2017-06-25T13:37:59.987Z,97515.00
2017-06-25T13:40:27.438Z,97508.91
2017-06-25T13:42:54.941Z,97509.01
2017-06-25T13:45:22.359Z,97510.84
2017-06-25T13:47:49.840Z,97513.71
2017-06-25T13:50:17.266Z,97511.16
2017-06-25T13:52:44.767Z,97502.14
2017-06-25T13:55:12.336Z,97498.77
2017-06-25T13:57:40.610Z,97495.25
2017-06-25T14:00:08.025Z,97496.28
2017-06-25T14:02:35.454Z,97492.75
2017-06-25T14:05:03.081Z,97496.75
2017-06-25T14:07:30.536Z,97497.73
2017-06-25T14:09:58.001Z,97493.93
2017-06-25T14:12:25.447Z,97493.59
2017-06-25T14:14:52.893Z,97495.11
2017-06-25T14:17:20.345Z,97482.85
2017-06-25T14:19:47.806Z,97481.88
2017-06-25T14:22:15.224Z,97479.02
2017-06-25T14:24:42.671Z,97476.39
2017-06-25T14:27:10.207Z,97480.56
2017-06-25T14:29:37.624Z,97475.52
2017-06-25T14:32:05.108Z,97473.77
2017-06-25T14:34:32.563Z,97469.20
2017-06-25T14:36:59.964Z,97466.02
2017-06-25T14:39:27.465Z,97467.95
2017-06-25T14:41:54.957Z,97462.24
2017-06-25T14:44:22.402Z,97462.00
2017-06-25T14:46:49.791Z,97463.30
2017-06-25T14:49:17.286Z,97462.77
2017-06-25T14:51:45.352Z,97462.16
2017-06-25T14:54:12.784Z,97457.77
2017-06-25T14:56:40.360Z,97463.29
2017-06-25T14:59:07.936Z,97463.03
2017-06-25T15:01:35.372Z,97449.77
2017-06-25T15:04:02.885Z,97460.61
2017-06-25T15:06:30.372Z,97469.38
2017-06-25T15:08:57.902Z,97465.05
2017-06-25T15:11:25.399Z,97458.16
2017-06-25T15:13:52.851Z,97461.75
2017-06-25T15:16:20.499Z,97462.65
2017-06-25T15:18:47.924Z,97457.27
2017-06-25T15:21:15.448Z,97464.78
2017-06-25T15:23:43.448Z,97461.44
2017-06-25T15:26:10.877Z,97461.11
2017-06-25T15:28:38.383Z,97466.34
2017-06-25T15:31:06.701Z,97465.59
2017-06-25T15:33:34.275Z,97473.78
2017-06-25T15:36:01.827Z,97462.87
2017-06-25T15:38:29.399Z,97465.70
2017-06-25T15:40:56.976Z,97469.64
2017-06-25T15:43:24.530Z,97469.84
2017-06-25T15:45:51.944Z,97471.44
2017-06-25T15:48:19.405Z,97470.53
2017-06-25T15:50:46.831Z,97471.05
2017-06-25T15:53:14.292Z,97470.69
2017-06-25T15:55:41.763Z,97474.83
2017-06-25T15:58:09.212Z,97476.30
2017-06-25T16:00:36.776Z,97482.80
2017-06-25T16:03:04.342Z,97488.52
2017-06-25T16:05:31.831Z,97487.16
2017-06-25T16:08:00.084Z,97482.87
2017-06-25T16:10:27.516Z,97483.26
2017-06-25T16:12:55.000Z,97486.81
2017-06-25T16:15:22.469Z,97483.89
2017-06-25T16:17:49.925Z,97486.06
2017-06-25T16:20:17.361Z,97489.42
2017-06-25T16:22:44.794Z,97483.31
2017-06-25T16:25:12.316Z,97484.11
2017-06-25T16:27:39.802Z,97477.05
2017-06-25T16:30:07.250Z,97479.38
2017-06-25T16:32:34.762Z,97477.22
2017-06-25T16:35:02.177Z,97486.89
2017-06-25T16:37:29.622Z,97483.55
2017-06-25T16:39:57.081Z,97490.62
2017-06-25T16:42:24.559Z,97486.69
2017-06-25T16:44:52.041Z,97488.27
2017-06-25T16:47:20.183Z,97488.46
2017-06-25T16:49:47.640Z,97481.57
2017-06-25T16:52:15.222Z,97487.28
2017-06-25T16:54:42.794Z,97479.58
2017-06-25T16:57:10.226Z,97474.88
2017-06-25T16:59:37.647Z,97475.50
2017-06-25T17:02:05.160Z,97479.02
2017-06-25T17:04:32.606Z,97475.28
2017-06-25T17:07:00.201Z,97476.23
2017-06-25T17:09:27.711Z,97479.03
2017-06-25T17:11:55.339Z,97476.86
2017-06-25T17:14:22.949Z,97481.61
2017-06-25T17:16:50.392Z,97484.14
2017-06-25T17:19:18.470Z,97486.91
2017-06-25T17:21:45.894Z,97489.86
2017-06-25T17:24:13.410Z,97487.70
2017-06-25T17:26:40.863Z,97493.80
2017-06-25T17:29:08.288Z,97492.42
2017-06-25T17:31:35.729Z,97491.63
2017-06-25T17:34:03.241Z,97492.81
2017-06-25T17:36:30.795Z,97485.09
2017-06-25T17:38:58.235Z,97486.27
2017-06-25T17:41:25.648Z,97487.27
2017-06-25T17:43:53.177Z,97486.08
2017-06-25T17:46:20.621Z,97483.70
2017-06-25T17:48:48.063Z,97494.52
2017-06-25T17:51:15.531Z,97493.35
2017-06-25T17:53:43.029Z,97495.08
2017-06-25T17:56:10.541Z,97489.98
2017-06-25T17:58:37.993Z,97487.81
2017-06-25T18:01:05.467Z,97492.34
2017-06-25T18:03:32.913Z,97489.16
2017-06-25T18:06:00.383Z,97492.53
2017-06-25T18:08:27.855Z,97500.22
2017-06-25T18:10:55.264Z,97499.81
2017-06-25T18:13:23.635Z,97500.10
2017-06-25T18:15:51.060Z,97505.20
2017-06-25T18:18:19.526Z,97506.80
2017-06-25T18:20:46.991Z,97497.38
2017-06-25T18:23:14.507Z,97490.72
2017-06-25T18:25:42.010Z,97492.29
2017-06-25T18:28:09.467Z,97497.37
2017-06-25T18:30:36.930Z,97487.98
2017-06-25T18:33:05.055Z,97492.22
2017-06-25T18:35:32.552Z,97499.65
2017-06-25T18:38:00.023Z,97493.65
2017-06-25T18:40:27.595Z,97492.47
2017-06-25T18:42:55.027Z,97492.58
2017-06-25T18:45:22.455Z,97502.58
2017-06-25T18:47:53.964Z,97505.52
2017-06-25T18:50:23.368Z,97499.23
2017-06-25T18:52:55.461Z,97507.08
2017-06-25T18:55:26.777Z,97506.13
2017-06-25T18:57:56.088Z,97506.83
2017-06-25T19:00:30.916Z,97509.67
2017-06-25T19:03:02.217Z,97503.63
2017-06-25T19:05:29.634Z,97498.88
2017-06-25T19:07:57.125Z,97498.19
2017-06-25T19:10:26.428Z,97499.27
2017-06-25T19:12:53.864Z,97498.28
2017-06-25T19:15:26.152Z,97503.21
2017-06-25T19:17:57.424Z,97505.55
2017-06-25T19:20:24.950Z,97506.56
2017-06-25T19:22:52.438Z,97510.66
2017-06-25T19:25:19.870Z,97516.34
2017-06-25T19:27:51.335Z,97518.42
2017-06-25T19:30:18.991Z,97516.80
2017-06-25T19:32:47.370Z,97521.19
2017-06-25T19:35:16.426Z,97528.02
2017-06-25T19:37:43.890Z,97531.96
2017-06-25T19:40:11.330Z,97530.95
2017-06-25T19:42:38.829Z,97544.75
2017-06-25T19:45:06.289Z,97542.27
2017-06-25T19:47:33.709Z,97547.78
2017-06-25T19:50:01.164Z,97543.73
2017-06-25T19:52:28.644Z,97555.11
2017-06-25T19:54:57.034Z,97552.44
2017-06-25T19:57:24.475Z,97555.96
2017-06-25T19:59:51.931Z,97556.61
2017-06-25T20:02:20.203Z,97558.91
2017-06-25T20:04:47.667Z,97556.81
2017-06-25T20:07:15.147Z,97560.66
2017-06-25T20:09:42.620Z,97558.50
2017-06-25T20:12:10.056Z,97566.64
2017-06-25T20:14:37.601Z,97564.20
2017-06-25T20:17:05.100Z,97571.90
2017-06-25T20:19:32.547Z,97564.94
2017-06-25T20:22:00.015Z,97571.70
2017-06-25T20:24:27.445Z,97572.91
2017-06-25T20:26:54.881Z,97572.91
2017-06-25T20:29:22.356Z,97570.04
2017-06-25T20:31:49.807Z,97565.62
2017-06-25T20:34:17.351Z,97566.00
2017-06-25T20:36:45.025Z,97565.69
2017-06-25T20:39:12.435Z,97574.84
2017-06-25T20:41:39.853Z,97573.86
2017-06-25T20:44:07.337Z,97578.38
2017-06-25T20:46:34.769Z,97578.31
2017-06-25T20:49:04.123Z,97578.59
2017-06-25T20:51:31.843Z,97574.12
2017-06-25T20:53:59.280Z,97574.95
2017-06-25T20:56:26.698Z,97579.84
2017-06-25T20:58:54.206Z,97584.92
2017-06-25T21:01:21.653Z,97579.66
2017-06-25T21:03:49.081Z,97581.58
2017-06-25T21:06:16.564Z,97581.00
2017-06-25T21:08:44.069Z,97581.19
2017-06-25T21:11:11.578Z,97583.29
2017-06-25T21:13:39.240Z,97587.48
2017-06-25T21:16:07.673Z,97579.75
2017-06-25T21:18:39.907Z,97581.63
2017-06-25T21:21:07.308Z,97582.67
2017-06-25T21:23:34.758Z,97581.36
2017-06-25T21:26:02.288Z,97586.80
2017-06-25T21:28:29.789Z,97589.42
2017-06-25T21:30:57.201Z,97586.02
2017-06-25T21:33:24.611Z,97587.50
2017-06-25T21:35:52.081Z,97589.02
2017-06-25T21:38:19.533Z,97590.52
2017-06-25T21:40:46.988Z,97584.67
2017-06-25T21:43:14.464Z,97584.09
2017-06-25T21:45:41.964Z,97581.28
2017-06-25T21:48:09.467Z,97585.29
2017-06-25T21:50:36.918Z,97581.14
2017-06-25T21:53:04.339Z,97584.43
2017-06-25T21:55:31.796Z,97584.65
2017-06-25T21:57:59.217Z,97589.85
2017-06-25T22:00:26.659Z,97580.59
2017-06-25T22:02:54.199Z,97579.73
2017-06-25T22:05:23.611Z,97590.21
2017-06-25T22:07:51.125Z,97579.27
2017-06-25T22:10:18.534Z,97589.16
2017-06-25T22:12:45.983Z,97583.44
2017-06-25T22:15:13.400Z,97588.58
2017-06-25T22:17:40.864Z,97596.46
2017-06-25T22:20:08.291Z,97595.92
2017-06-25T22:22:35.752Z,97600.02
2017-06-25T22:25:03.156Z,97601.20
2017-06-25T22:27:30.596Z,97607.47
2017-06-25T22:29:58.009Z,97607.80
2017-06-25T22:32:25.423Z,97607.13
2017-06-25T22:34:52.973Z,97609.74
2017-06-25T22:37:20.502Z,97609.48
2017-06-25T22:39:47.933Z,97606.14
2017-06-25T22:42:15.465Z,97603.06
2017-06-25T22:44:42.953Z,97596.18
2017-06-25T22:47:10.385Z,97595.49
2017-06-25T22:49:37.850Z,97602.77
2017-06-25T22:52:05.279Z,97598.75
2017-06-25T22:54:32.781Z,97603.17
2017-06-25T22:57:00.393Z,97608.77
2017-06-25T22:59:27.846Z,97600.66
2017-06-25T23:01:55.307Z,97613.17
2017-06-25T23:04:22.762Z,97608.55
2017-06-25T23:06:56.261Z,97603.06
2017-06-25T23:09:23.694Z,97605.91
2017-06-25T23:11:51.123Z,97607.80
2017-06-25T23:14:18.552Z,97609.50
2017-06-25T23:16:46.070Z,97604.80
2017-06-25T23:19:13.467Z,97596.38
2017-06-25T23:21:40.880Z,97609.98
2017-06-25T23:24:08.318Z,97607.42
2017-06-25T23:26:35.768Z,97609.19
2017-06-25T23:29:03.224Z,97605.06
2017-06-25T23:31:30.732Z,97606.03
2017-06-25T23:33:58.196Z,97593.52
2017-06-25T23:36:26.532Z,97588.93
2017-06-25T23:38:53.953Z,97590.91
2017-06-25T23:41:21.425Z,97597.23
2017-06-25T23:43:48.832Z,97598.27
2017-06-25T23:46:16.557Z,97598.19
2017-06-25T23:48:44.835Z,97599.94
2017-06-25T23:51:12.305Z,97594.39
2017-06-25T23:53:39.769Z,97598.27
2017-06-25T23:56:07.211Z,97590.84
2017-06-25T23:58:34.615Z,97590.13
